Bruce Mines, Canada
Current Conditions -  °F | °C
As of 5:34 AM on Friday 24 Oct 2014 (Local Time) from KDRM Reporting Station
Overcast Overcast  
Wind Chill: 40°   Ceiling: 3200
Heat Index: 40°   Visibility: 7mi
Dew Point: 40°   Wind: 0mph
Humidity: 100%   Direction: NA
Pressure: 30.01"   Gusts: NA
Location:  46.3°N, 83.79°W
Report Text: KDRM 240934Z AUTO 00000KT 7SM SCT020 OVC032 05/05 A3001 RMK AO2 T00450045
Loading
Personal Weather Stations






























Interactive Weather Map
Tropical Storm Tracking
New forecast layout! Learn more

10-Day Weather Forecast

Advertisements
Track Severe Weather on mobile